KRDM/RDM METAR and TAF weather

Enter ICAO airport designator
Station Type Date Time Source
KRDM METAR 2019/02/23 22:56 UTC NOAA

KRDM 232256Z 31010KT 10SM FEW050 OVC070 07/M02 A2999 RMK AO2 SLP165 T00671022


Station Type Date Time Source
KRDM Decoded METAR 2019/02/23 22:56 UTC NOAA

REDMOND ROBERTS FIELD, OR, United States (KRDM) 44-15N 121-08W
Feb 23, 2019 - 05:56 PM EST / 2019.02.23 2256 UTC
Wind: from the NW (310 degrees) at 12 MPH (10 KT):0
Visibility: 10 mile(s):0
Sky conditions: overcast
Temperature: 44.1 F (6.7 C)
Dew Point: 28.0 F (-2.2 C)
Relative Humidity: 52%
Pressure (altimeter): 29.99 in. Hg (1015 hPa)
ob: KRDM 232256Z 31010KT 10SM FEW050 OVC070 07/M02 A2999 RMK AO2 SLP165 T00671022
cycle: 23

Station Type Date Time Source
KRDM TAF 2019/02/23 18:48 UTC NOAA

TAF KRDM 231740Z 2318/2418 30007KT P6SM SCT050
FM232200 22008KT P6SM BKN050 OVC100
FM240100 17006KT 5SM -SN OVC025
FM241300 25008KT 2SM -SN VV015
FM241700 24010KT 1/2SM SN VV010


Example: see airport list